This is the latest recevied weather packets stored in our database for station/object DL2AMT-9. If no packets are shown the sender has not sent any weather packets the latest 10 day(s).
| Time | Temp. | Humidity | Pressure | Rain* | Wind** | Luminosity | Snow |
|---|---|---|---|---|---|---|---|
| 1787484177 | 27.78° C | 36% | 978.3 hPa | - | - | - | - |
| 1787483877 | 27.78° C | 36% | 978.2 hPa | - | - | - | - |
| 1787483577 | 27.22° C | 36% | 978.2 hPa | - | - | - | - |
| 1787483277 | 27.22° C | 36% | 978.3 hPa | - | - | - | - |
| 1787482977 | 26.67° C | 36% | 978.2 hPa | - | - | - | - |
| 1787482677 | 26.67° C | 36% | 978.2 hPa | - | - | - | - |
| 1787482376 | 26.11° C | 37% | 978.2 hPa | - | - | - | - |
| 1787417615 | 30.56° C | 34% | 974.3 hPa | - | - | - | - |
| 1787417315 | 30.56° C | 34% | 974.3 hPa | - | - | - | - |
| 1787417015 | 30° C | 34% | 974.3 hPa | - | - | - | - |
| 1787416715 | 30° C | 34% | 974.3 hPa | - | - | - | - |
| 1787416415 | 30° C | 34% | 974.3 hPa | - | - | - | - |
| 1787416115 | 30° C | 34% | 974.3 hPa | - | - | - | - |
| 1787415815 | 30° C | 34% | 974.3 hPa | - | - | - | - |
| 1787415515 | 30.56° C | 33% | 974.2 hPa | - | - | - | - |
| 1787415214 | 30.56° C | 33% | 974.2 hPa | - | - | - | - |
| 1787414914 | 30.56° C | 34% | 974.1 hPa | - | - | - | - |
| 1787414614 | 30.56° C | 33% | 974.1 hPa | - | - | - | - |
| 1787414314 | 30.56° C | 33% | 974.1 hPa | - | - | - | - |
| 1787414014 | 30.56° C | 34% | 974.1 hPa | - | - | - | - |
| 1787413714 | 30° C | 34% | 974 hPa | - | - | - | - |
| 1787413414 | 30° C | 34% | 974 hPa | - | - | - | - |
| 1787413114 | 30° C | 34% | 974.1 hPa | - | - | - | - |
| 1787412814 | 30° C | 34% | 974.1 hPa | - | - | - | - |
| 1787412514 | 30° C | 34% | 974.1 hPa | - | - | - | - |
* Rain since midnight (hover to see other rain measurements)
** Current wind speed in m/s (hover to see current wind gust speed)